CheckWX is a tool to help pilots better visualize weather data.  It is not intended as a substitute for an official pre-flight weather briefing.

20:33:59 UTC

KRSN METAR
Ruston Regional Airport
Ruston, Louisiana, USA
Current

19 mins ago

KRSN 202015Z AUTO 28003KT 10SM CLR 22/02 A3005 RMK AO2 T02170015
Observed
Apr-20 @ 20:15 UTC
Wind
  • 280° at 3 KTS
Visibility
10 SM
Flight Rules
VFR
Cloud Levels
  • Clear skies
Temperature
22°C / 72°F
Dewpoint
C / 36°F
Humidity
27%
Altimeter
30.05" Hg
Pressure
1017.62 hPa
Previous

39 mins ago

KRSN 201955Z AUTO 25004KT 10SM CLR 22/02 A3006 RMK AO2 T02150018
Observed
Apr-20 @ 19:55 UTC
Wind
  • 250° at 4 KTS
Visibility
10 SM
Flight Rules
VFR
Cloud Levels
  • Clear skies
Temperature
22°C / 72°F
Dewpoint
C / 36°F
Humidity
27%
Altimeter
30.06" Hg
Pressure
1017.92 hPa
Previous

59 mins ago

KRSN 201935Z AUTO 33004KT 10SM CLR 21/01 A3006 RMK AO2 T02140009
Observed
Apr-20 @ 19:35 UTC
Wind
  • 330° at 4 KTS
Visibility
10 SM
Flight Rules
VFR
Cloud Levels
  • Clear skies
Temperature
21°C / 70°F
Dewpoint
C / 34°F
Humidity
27%
Altimeter
30.06" Hg
Pressure
1017.92 hPa